createdAt,value
2019-06-15T00:01:15.836Z,17.20
2019-06-15T00:03:22.122Z,16.17
2019-06-15T00:05:28.459Z,16.70
2019-06-15T00:07:34.803Z,16.03
2019-06-15T00:09:41.138Z,15.50
2019-06-15T00:11:47.515Z,15.23
2019-06-15T00:13:53.808Z,15.13
2019-06-15T00:16:00.236Z,15.63
2019-06-15T00:18:06.628Z,15.00
2019-06-15T00:20:12.901Z,16.27
2019-06-15T00:22:19.196Z,15.07
2019-06-15T00:24:35.044Z,15.17
2019-06-15T00:26:33.617Z,15.97
2019-06-15T00:28:39.919Z,15.20
2019-06-15T00:30:46.288Z,16.47
2019-06-15T00:32:52.620Z,16.00
2019-06-15T00:34:58.918Z,17.67
2019-06-15T00:37:05.156Z,15.93
2019-06-15T00:39:11.655Z,16.90
2019-06-15T00:41:17.940Z,17.13
2019-06-15T00:43:24.259Z,15.13
2019-06-15T00:45:30.626Z,16.10
2019-06-15T00:47:37.036Z,16.87
2019-06-15T00:49:43.321Z,18.17
2019-06-15T00:51:49.628Z,16.70
2019-06-15T00:53:55.987Z,16.70
2019-06-15T00:56:04.056Z,16.70
2019-06-15T00:58:10.451Z,17.60
2019-06-15T01:00:17.893Z,17.30
2019-06-15T01:02:24.221Z,15.77
2019-06-15T01:04:30.533Z,17.93
2019-06-15T01:06:36.826Z,17.97
2019-06-15T01:08:43.175Z,18.70
2019-06-15T01:10:49.511Z,17.70
2019-06-15T01:12:55.766Z,18.20
2019-06-15T01:15:02.083Z,15.60
2019-06-15T01:17:08.417Z,19.30
2019-06-15T01:19:14.682Z,18.27
2019-06-15T01:21:21.087Z,18.27
2019-06-15T01:23:27.466Z,16.73
2019-06-15T01:25:33.775Z,16.70
2019-06-15T01:27:40.211Z,18.40
2019-06-15T01:29:46.691Z,16.00
2019-06-15T01:31:52.945Z,17.57
2019-06-15T01:33:59.343Z,17.27
2019-06-15T01:36:05.752Z,16.80
2019-06-15T01:38:12.170Z,15.73
2019-06-15T01:40:18.611Z,16.20
2019-06-15T01:42:25.024Z,17.53
2019-06-15T01:44:31.390Z,16.47
2019-06-15T01:46:37.725Z,15.77
2019-06-15T01:48:44.059Z,19.60
2019-06-15T01:50:50.455Z,15.33
2019-06-15T01:52:56.752Z,16.53
2019-06-15T01:55:20.414Z,17.20
2019-06-15T01:57:17.634Z,16.00
2019-06-15T01:59:23.955Z,16.50
2019-06-15T02:01:30.200Z,17.77
2019-06-15T02:03:36.430Z,18.10
2019-06-15T02:05:42.772Z,18.40
2019-06-15T02:07:49.095Z,18.00
2019-06-15T02:09:55.408Z,17.67
2019-06-15T02:12:01.866Z,17.60
2019-06-15T02:14:08.105Z,15.90
2019-06-15T02:16:14.495Z,16.70
2019-06-15T02:18:20.810Z,16.07
2019-06-15T02:20:27.298Z,16.77
2019-06-15T02:22:33.679Z,15.97
2019-06-15T02:24:39.992Z,15.73
2019-06-15T02:26:46.321Z,17.50
2019-06-15T02:28:52.596Z,17.07
2019-06-15T02:30:58.913Z,16.80
2019-06-15T02:33:10.116Z,17.33
2019-06-15T02:35:16.486Z,17.53
2019-06-15T02:37:22.823Z,17.17
2019-06-15T02:39:29.065Z,17.37
2019-06-15T02:41:35.383Z,18.30
2019-06-15T02:43:41.661Z,18.07
2019-06-15T02:45:48.012Z,16.80
2019-06-15T02:47:54.348Z,15.10
2019-06-15T02:50:00.689Z,16.43
2019-06-15T02:52:07.009Z,16.07
2019-06-15T02:54:13.363Z,18.77
2019-06-15T02:56:19.605Z,16.77
2019-06-15T02:58:25.905Z,16.40
2019-06-15T04:00:02.080Z,15.67
2019-06-15T04:02:08.404Z,16.13
2019-06-15T04:04:14.678Z,17.93
2019-06-15T04:06:21.013Z,15.70
2019-06-15T04:08:27.311Z,17.00
2019-06-15T04:10:33.628Z,14.67
2019-06-15T04:12:39.906Z,15.87
2019-06-15T04:14:46.278Z,16.47
2019-06-15T04:16:52.647Z,14.60
2019-06-15T04:18:58.913Z,16.80
2019-06-15T04:21:05.287Z,13.90
2019-06-15T04:23:11.600Z,15.87
2019-06-15T04:25:17.856Z,16.57
2019-06-15T04:27:24.266Z,15.83
2019-06-15T04:29:30.655Z,15.07
2019-06-15T04:31:39.882Z,15.13
2019-06-15T04:33:44.931Z,17.23
2019-06-15T04:35:51.231Z,15.13
2019-06-15T04:37:57.547Z,15.47
2019-06-15T04:40:03.791Z,14.97
2019-06-15T04:42:10.143Z,16.80
2019-06-15T04:44:16.492Z,14.80
2019-06-15T04:46:22.700Z,15.30
2019-06-15T04:48:28.975Z,15.47
2019-06-15T04:50:35.230Z,15.53
2019-06-15T04:52:41.584Z,14.40
2019-06-15T04:54:47.885Z,13.97
2019-06-15T04:56:54.206Z,15.37
2019-06-15T04:59:00.453Z,14.90
2019-06-15T05:01:08.042Z,14.37
2019-06-15T05:03:14.435Z,14.33
2019-06-15T05:05:20.782Z,13.20
2019-06-15T05:07:27.128Z,14.30
2019-06-15T05:09:33.476Z,15.70
2019-06-15T05:11:39.811Z,13.80
2019-06-15T05:13:46.161Z,14.40
2019-06-15T05:15:52.553Z,13.83
2019-06-15T05:17:58.870Z,14.57
2019-06-15T05:20:05.807Z,16.10
2019-06-15T05:22:12.821Z,14.07
2019-06-15T05:24:19.257Z,14.50
2019-06-15T05:26:25.593Z,15.17
2019-06-15T05:28:31.880Z,16.10
2019-06-15T05:30:38.177Z,15.30
2019-06-15T05:32:44.573Z,17.10
2019-06-15T05:34:50.861Z,14.67
2019-06-15T05:36:57.075Z,14.03
2019-06-15T05:39:03.459Z,14.30
2019-06-15T05:41:09.791Z,15.73
2019-06-15T05:43:16.063Z,13.13
2019-06-15T05:45:22.497Z,13.43
2019-06-15T05:47:28.733Z,14.47
2019-06-15T05:49:34.976Z,12.93
2019-06-15T05:51:41.218Z,13.23
2019-06-15T05:53:47.497Z,13.10
2019-06-15T05:55:53.858Z,14.00
2019-06-15T05:58:00.135Z,12.73
2019-06-15T06:00:08.217Z,11.40
2019-06-15T06:02:14.547Z,13.50
2019-06-15T06:04:20.779Z,12.57
2019-06-15T06:06:27.069Z,12.00
2019-06-15T06:08:33.348Z,12.13
2019-06-15T06:10:39.625Z,11.10
2019-06-15T06:12:45.891Z,12.47
2019-06-15T06:14:52.532Z,12.37
2019-06-15T06:16:59.081Z,11.97
2019-06-15T06:19:05.399Z,12.00
2019-06-15T06:21:11.683Z,12.43
2019-06-15T06:23:18.010Z,12.07
2019-06-15T06:25:24.436Z,12.47
2019-06-15T06:27:36.559Z,10.50
2019-06-15T06:29:39.104Z,11.97
2019-06-15T06:31:45.446Z,13.23
2019-06-15T06:33:51.803Z,10.23
2019-06-15T06:35:58.278Z,11.10
2019-06-15T06:38:08.315Z,10.87
2019-06-15T06:40:14.723Z,10.57
2019-06-15T06:42:21.391Z,9.73
2019-06-15T06:44:27.715Z,11.37
2019-06-15T06:46:36.075Z,9.80
2019-06-15T06:48:42.343Z,11.00
2019-06-15T06:50:48.669Z,9.90
2019-06-15T06:52:54.962Z,10.90
2019-06-15T06:55:01.231Z,11.10
2019-06-15T06:57:07.522Z,11.60
2019-06-15T06:59:13.782Z,11.37
2019-06-15T07:01:20.249Z,10.80
2019-06-15T07:03:26.594Z,11.03
2019-06-15T07:05:33.103Z,11.63
2019-06-15T07:07:39.447Z,12.00
2019-06-15T07:09:46.073Z,12.33
2019-06-15T07:11:52.419Z,10.63
2019-06-15T07:13:58.830Z,11.13
2019-06-15T07:16:05.159Z,11.13
2019-06-15T07:18:11.696Z,11.23
2019-06-15T07:20:18.136Z,11.03
2019-06-15T07:22:25.322Z,10.40
2019-06-15T07:24:31.627Z,10.30
2019-06-15T07:26:38.024Z,11.57
2019-06-15T07:28:44.334Z,11.03
2019-06-15T07:30:50.563Z,10.70
2019-06-15T07:32:56.999Z,11.47
2019-06-15T07:35:03.402Z,9.00
2019-06-15T07:37:14.539Z,10.03
2019-06-15T07:39:21.053Z,9.70
2019-06-15T07:41:29.031Z,9.63
2019-06-15T07:43:36.722Z,9.40
2019-06-15T07:45:46.415Z,9.90
2019-06-15T07:47:53.216Z,9.53
2019-06-15T07:49:59.765Z,9.30
2019-06-15T07:52:06.297Z,9.93
2019-06-15T07:54:12.886Z,9.07
2019-06-15T07:56:20.534Z,9.27
2019-06-15T07:58:29.912Z,8.50
2019-06-15T08:00:39.261Z,9.17
2019-06-15T08:02:46.604Z,8.67
2019-06-15T08:04:54.604Z,8.87
2019-06-15T08:07:02.148Z,8.10
2019-06-15T08:09:08.767Z,7.60
2019-06-15T08:11:15.265Z,9.13
2019-06-15T08:13:23.759Z,8.60
2019-06-15T08:15:33.332Z,8.73
2019-06-15T08:17:40.387Z,9.57
2019-06-15T08:19:49.187Z,8.80
2019-06-15T08:21:56.219Z,8.30
2019-06-15T08:24:04.933Z,9.70
2019-06-15T08:26:14.875Z,8.83
2019-06-15T08:28:21.507Z,8.03
2019-06-15T08:30:34.770Z,8.33
2019-06-15T08:32:45.755Z,9.53
2019-06-15T08:34:53.611Z,9.60
2019-06-15T08:37:03.416Z,11.43
2019-06-15T08:39:12.968Z,10.10
2019-06-15T08:41:21.078Z,9.30
2019-06-15T08:43:28.850Z,8.90
2019-06-15T08:45:35.297Z,8.87
2019-06-15T08:47:47.410Z,9.60
2019-06-15T08:49:53.516Z,11.13
2019-06-15T08:52:04.176Z,9.30
2019-06-15T08:54:12.475Z,9.37
2019-06-15T08:56:19.136Z,10.30
2019-06-15T08:58:25.661Z,8.93
2019-06-15T09:59:25.357Z,10.63
2019-06-15T10:01:21.808Z,10.40
2019-06-15T10:03:28.188Z,10.67
2019-06-15T10:05:34.735Z,9.23
2019-06-15T10:07:41.350Z,11.10
2019-06-15T10:09:48.756Z,10.40
2019-06-15T10:11:55.080Z,8.80
2019-06-15T10:14:04.485Z,9.30
2019-06-15T10:16:11.040Z,9.20
2019-06-15T10:18:17.398Z,10.03
2019-06-15T10:20:24.156Z,9.40
2019-06-15T10:22:30.521Z,9.40
2019-06-15T10:24:36.887Z,9.90
2019-06-15T10:26:43.201Z,10.10
2019-06-15T10:28:49.654Z,10.43
2019-06-15T10:30:56.373Z,8.70
2019-06-15T10:33:02.736Z,8.70
2019-06-15T10:35:09.193Z,9.57
2019-06-15T10:37:16.768Z,10.30
2019-06-15T10:39:25.589Z,10.03
2019-06-15T10:41:35.387Z,10.57
2019-06-15T10:43:47.215Z,10.13
2019-06-15T10:45:53.983Z,10.90
2019-06-15T10:48:02.554Z,9.20
2019-06-15T10:50:16.031Z,9.73
2019-06-15T10:52:28.426Z,10.30
2019-06-15T10:54:35.044Z,11.13
2019-06-15T10:56:43.623Z,9.83
2019-06-15T10:58:50.152Z,11.17
2019-06-15T11:00:56.652Z,10.40
2019-06-15T11:03:06.319Z,10.63
2019-06-15T11:05:16.676Z,9.47
2019-06-15T11:07:24.386Z,9.67
2019-06-15T11:09:33.806Z,9.80
2019-06-15T11:11:41.793Z,10.07
2019-06-15T11:13:48.232Z,10.53
2019-06-15T11:15:54.959Z,9.47
2019-06-15T11:18:06.979Z,8.70
2019-06-15T11:20:16.066Z,10.23
2019-06-15T11:22:22.708Z,10.03
2019-06-15T11:24:31.997Z,10.93
2019-06-15T11:26:42.347Z,9.10
2019-06-15T11:28:49.032Z,9.23
2019-06-15T11:30:57.135Z,9.10
2019-06-15T11:33:03.723Z,9.37
2019-06-15T11:35:15.127Z,8.80
2019-06-15T11:37:21.835Z,8.27
2019-06-15T11:39:32.056Z,10.33
2019-06-15T11:41:40.825Z,8.50
2019-06-15T11:43:49.973Z,9.40
2019-06-15T11:45:59.619Z,9.93
2019-06-15T11:48:07.779Z,8.47
2019-06-15T11:50:15.955Z,9.90
2019-06-15T11:52:22.350Z,9.50
2019-06-15T11:54:30.168Z,8.60
2019-06-15T11:56:36.722Z,8.70
2019-06-15T11:58:44.575Z,8.47
2019-06-15T12:00:55.452Z,8.13
2019-06-15T12:03:05.175Z,9.40
2019-06-15T12:05:16.644Z,8.27
2019-06-15T12:07:28.627Z,10.37
2019-06-15T12:09:38.068Z,9.57
2019-06-15T12:11:46.918Z,9.43
2019-06-15T12:14:08.979Z,8.90
2019-06-15T12:16:15.491Z,9.70
2019-06-15T12:18:22.346Z,10.20
2019-06-15T12:20:29.246Z,9.57
2019-06-15T12:22:35.879Z,10.90
2019-06-15T12:24:43.920Z,9.70
2019-06-15T12:26:50.901Z,10.77
2019-06-15T12:28:59.038Z,10.13
2019-06-15T12:31:06.053Z,10.93
2019-06-15T12:33:12.454Z,11.10
2019-06-15T12:35:18.796Z,12.67
2019-06-15T12:37:25.142Z,11.37
2019-06-15T12:39:32.892Z,11.23
2019-06-15T12:41:39.242Z,12.30
2019-06-15T12:43:45.576Z,11.00
2019-06-15T12:45:51.966Z,11.67
2019-06-15T12:48:03.329Z,11.10
2019-06-15T12:50:09.699Z,12.30
2019-06-15T12:52:16.055Z,11.40
2019-06-15T12:54:22.433Z,11.90
2019-06-15T12:56:28.842Z,11.93
2019-06-15T12:58:35.279Z,12.23
2019-06-15T14:00:49.399Z,9.70
2019-06-15T14:02:55.669Z,9.13
2019-06-15T14:05:02.631Z,11.40
2019-06-15T14:07:09.030Z,9.80
2019-06-15T14:09:17.813Z,10.27
2019-06-15T14:11:24.309Z,9.73
2019-06-15T14:13:30.731Z,10.10
2019-06-15T14:15:37.032Z,8.70
2019-06-15T14:17:43.372Z,9.00
2019-06-15T14:19:49.769Z,8.17
2019-06-15T14:21:56.143Z,7.60
2019-06-15T14:24:02.556Z,9.07
2019-06-15T14:26:08.927Z,8.90
2019-06-15T14:28:15.280Z,8.73
2019-06-15T14:30:21.851Z,9.47
2019-06-15T14:32:31.528Z,8.90
2019-06-15T14:34:39.818Z,8.10
2019-06-15T14:36:49.394Z,8.03
2019-06-15T14:39:00.435Z,7.93
2019-06-15T14:41:06.819Z,7.83
2019-06-15T14:43:13.252Z,7.40
2019-06-15T14:45:19.691Z,7.90
2019-06-15T14:47:26.091Z,8.30
2019-06-15T14:49:32.516Z,7.60
2019-06-15T14:51:40.239Z,8.20
2019-06-15T14:53:51.676Z,7.27
2019-06-15T14:55:56.495Z,6.33
2019-06-15T14:58:02.976Z,7.40
2019-06-15T15:00:09.569Z,9.00
2019-06-15T15:02:17.521Z,8.13
2019-06-15T15:04:26.388Z,7.50
2019-06-15T15:06:32.185Z,8.10
2019-06-15T15:08:38.536Z,7.43
2019-06-15T15:10:44.857Z,7.23
2019-06-15T15:12:51.373Z,7.73
2019-06-15T15:14:57.811Z,7.17
2019-06-15T15:17:06.394Z,7.00
2019-06-15T15:19:12.390Z,7.33
2019-06-15T15:21:19.892Z,7.30
2019-06-15T15:23:26.257Z,7.40
2019-06-15T15:25:32.600Z,6.23
2019-06-15T15:27:39.150Z,6.60
2019-06-15T15:29:46.366Z,7.07
2019-06-15T15:31:53.057Z,6.93
2019-06-15T15:33:59.513Z,7.83
2019-06-15T15:36:06.970Z,5.70
2019-06-15T15:38:13.733Z,7.93
2019-06-15T15:40:20.294Z,6.50
2019-06-15T15:42:27.822Z,7.20
2019-06-15T15:44:35.951Z,6.93
2019-06-15T15:46:42.435Z,6.70
2019-06-15T15:48:48.882Z,6.80
2019-06-15T15:50:57.368Z,5.73
2019-06-15T15:53:04.062Z,7.03
2019-06-15T15:55:10.540Z,7.10
2019-06-15T15:57:20.243Z,7.67
2019-06-15T15:59:26.642Z,8.40
2019-06-15T16:01:33.055Z,7.37
2019-06-15T16:03:39.479Z,7.00
2019-06-15T16:05:47.226Z,8.30
2019-06-15T16:07:53.751Z,6.20
2019-06-15T16:10:00.193Z,7.70
2019-06-15T16:12:07.073Z,7.40
2019-06-15T16:14:16.470Z,7.07
2019-06-15T16:16:22.645Z,6.30
2019-06-15T16:18:29.457Z,6.73
2019-06-15T16:20:37.078Z,6.37
2019-06-15T16:22:45.820Z,6.10
2019-06-15T16:24:51.634Z,6.30
2019-06-15T16:26:58.248Z,6.43
2019-06-15T16:29:06.815Z,6.40
2019-06-15T16:31:13.966Z,7.40
2019-06-15T16:33:20.935Z,6.13
2019-06-15T16:35:27.375Z,5.77
2019-06-15T16:37:33.737Z,6.00
2019-06-15T16:39:40.099Z,6.60
2019-06-15T16:41:47.131Z,5.73
2019-06-15T16:43:53.525Z,6.53
2019-06-15T16:46:03.170Z,6.40
2019-06-15T16:48:09.551Z,6.40
2019-06-15T16:50:16.246Z,6.10
2019-06-15T16:52:26.870Z,6.30
2019-06-15T16:54:32.964Z,7.50
2019-06-15T16:56:39.336Z,5.67
2019-06-15T17:59:28.202Z,7.63
2019-06-15T18:01:36.450Z,7.23
2019-06-15T18:03:53.996Z,8.10
2019-06-15T18:05:50.701Z,7.93
2019-06-15T18:08:00.843Z,7.97
2019-06-15T18:10:08.322Z,7.13
2019-06-15T18:12:16.241Z,7.63
2019-06-15T18:14:22.727Z,8.40
2019-06-15T18:16:30.521Z,8.03
2019-06-15T18:18:37.246Z,7.97
2019-06-15T18:20:45.120Z,6.97
2019-06-15T18:22:51.485Z,8.60
2019-06-15T18:24:59.136Z,8.03
2019-06-15T18:27:09.683Z,7.10
2019-06-15T18:29:16.886Z,8.33
2019-06-15T18:31:23.589Z,7.30
2019-06-15T18:33:29.922Z,7.90
2019-06-15T18:35:39.542Z,9.70
2019-06-15T18:37:47.206Z,8.27
2019-06-15T18:39:55.906Z,8.00
2019-06-15T18:42:01.924Z,8.37
2019-06-15T18:44:08.273Z,8.30
2019-06-15T18:46:14.620Z,6.90
2019-06-15T18:48:20.959Z,8.17
2019-06-15T18:50:37.784Z,9.10
2019-06-15T18:52:46.011Z,9.10
2019-06-15T18:54:56.040Z,8.57
2019-06-15T18:57:02.511Z,8.00
2019-06-15T20:00:51.910Z,9.80
2019-06-15T20:03:01.367Z,9.90
2019-06-15T20:05:11.012Z,9.70
2019-06-15T20:07:17.454Z,7.63
2019-06-15T20:09:25.864Z,8.10
2019-06-15T20:11:31.899Z,8.90
2019-06-15T20:13:38.397Z,9.50
2019-06-15T20:15:46.917Z,9.40
2019-06-15T20:17:52.991Z,8.60
2019-06-15T20:20:02.670Z,9.60
2019-06-15T20:22:11.349Z,8.63
2019-06-15T20:24:19.193Z,9.90
2019-06-15T20:26:26.847Z,9.50
2019-06-15T20:28:33.459Z,10.07
2019-06-15T20:30:41.947Z,8.63
2019-06-15T20:32:56.892Z,8.70
2019-06-15T20:35:16.968Z,8.50
2019-06-15T20:37:17.512Z,8.70
2019-06-15T20:39:26.543Z,8.63
2019-06-15T20:41:32.131Z,8.90
2019-06-15T20:43:40.604Z,9.57
2019-06-15T20:45:50.438Z,10.40
2019-06-15T20:47:59.295Z,9.40
2019-06-15T20:50:24.504Z,9.93
2019-06-15T20:52:24.426Z,10.00
2019-06-15T20:54:32.175Z,10.40
2019-06-15T20:56:38.560Z,9.10
2019-06-15T21:59:07.423Z,11.03
2019-06-15T22:01:21.385Z,11.57
2019-06-15T22:03:30.996Z,10.47
2019-06-15T22:05:38.859Z,12.80
2019-06-15T22:07:47.693Z,12.23
2019-06-15T22:09:56.921Z,11.33
2019-06-15T22:12:11.483Z,9.90
2019-06-15T22:14:19.157Z,11.33
2019-06-15T22:16:28.665Z,13.23
2019-06-15T22:18:36.551Z,11.20
2019-06-15T22:20:47.642Z,12.10
2019-06-15T22:22:57.247Z,12.60
2019-06-15T22:25:08.930Z,11.40
2019-06-15T22:27:17.677Z,13.77
2019-06-15T22:29:27.217Z,12.60
2019-06-15T22:31:37.240Z,10.90
2019-06-15T22:33:47.072Z,12.37
2019-06-15T22:35:57.344Z,12.50
2019-06-15T22:38:07.257Z,11.57
2019-06-15T22:40:17.604Z,12.67
2019-06-15T22:42:28.889Z,11.40
2019-06-15T22:44:38.903Z,14.03
2019-06-15T22:46:47.463Z,11.60
2019-06-15T22:48:56.234Z,11.47
2019-06-15T22:51:02.711Z,13.30
2019-06-15T22:53:10.964Z,12.43
2019-06-15T22:55:19.515Z,12.73
2019-06-15T22:57:27.482Z,13.47
2019-06-15T23:59:03.144Z,13.10
